createdAt,value
2023-04-22T00:01:21.270Z,10.60
2023-04-22T00:03:49.410Z,10.60
2023-04-22T00:06:17.725Z,10.70
2023-04-22T00:08:45.775Z,10.70
2023-04-22T00:11:13.723Z,10.60
2023-04-22T00:13:43.135Z,10.70
2023-04-22T00:16:11.190Z,10.60
2023-04-22T00:18:39.192Z,10.60
2023-04-22T00:21:07.541Z,10.60
2023-04-22T00:23:35.528Z,10.60
2023-04-22T00:26:03.726Z,10.60
2023-04-22T00:28:31.655Z,10.60
2023-04-22T00:31:03.299Z,10.60
2023-04-22T00:33:31.391Z,10.60
2023-04-22T00:35:59.360Z,10.60
2023-04-22T00:38:27.224Z,10.60
2023-04-22T00:40:55.103Z,10.60
2023-04-22T00:43:23.082Z,10.60
2023-04-22T00:45:51.079Z,10.60
2023-04-22T00:48:21.062Z,10.60
2023-04-22T00:50:48.881Z,10.60
2023-04-22T00:53:16.877Z,10.60
2023-04-22T00:55:44.937Z,10.60
2023-04-22T00:58:12.867Z,10.60
2023-04-22T01:00:40.805Z,10.60
2023-04-22T01:03:09.180Z,10.60
2023-04-22T01:05:39.186Z,10.50
2023-04-22T01:08:07.151Z,10.50
2023-04-22T01:10:35.175Z,10.50
2023-04-22T01:13:03.400Z,10.50
2023-04-22T01:15:31.293Z,10.50
2023-04-22T01:18:00.018Z,10.50
2023-04-22T01:20:29.458Z,10.50
2023-04-22T01:22:59.327Z,10.50
2023-04-22T01:25:28.695Z,10.40
2023-04-22T01:27:57.169Z,10.50
2023-04-22T01:30:25.075Z,10.40
2023-04-22T01:32:53.382Z,10.40
2023-04-22T01:35:21.502Z,10.40
2023-04-22T01:37:49.469Z,10.40
2023-04-22T01:40:19.805Z,10.30
2023-04-22T01:42:49.418Z,10.30
2023-04-22T01:45:17.778Z,10.30
2023-04-22T01:47:45.762Z,10.30
2023-04-22T01:50:13.728Z,10.30
2023-04-22T01:52:41.950Z,10.30
2023-04-22T01:55:10.894Z,10.30
2023-04-22T01:57:38.834Z,10.30
2023-04-22T02:00:10.057Z,10.40
2023-04-22T02:02:38.192Z,10.40
2023-04-22T02:05:10.229Z,10.40
2023-04-22T02:07:38.410Z,10.40
2023-04-22T02:10:07.434Z,10.40
2023-04-22T02:12:35.354Z,10.40
2023-04-22T02:15:03.255Z,10.40
2023-04-22T02:17:34.216Z,10.50
2023-04-22T02:20:02.461Z,10.50
2023-04-22T02:22:30.460Z,10.50
2023-04-22T02:24:58.359Z,10.50
2023-04-22T02:27:26.489Z,10.50
2023-04-22T02:29:54.405Z,10.50
2023-04-22T02:32:22.376Z,10.50
2023-04-22T02:34:51.677Z,10.50
2023-04-22T02:37:20.666Z,10.60
2023-04-22T02:39:48.627Z,10.50
2023-04-22T02:42:16.646Z,10.60
2023-04-22T02:44:44.513Z,10.60
2023-04-22T02:47:12.669Z,10.60
2023-04-22T02:49:40.812Z,10.60
2023-04-22T02:52:11.042Z,10.60
2023-04-22T02:54:38.851Z,10.70
2023-04-22T02:57:06.769Z,10.70
2023-04-22T02:59:36.151Z,10.70
2023-04-22T03:02:06.654Z,10.80
2023-04-22T03:04:35.042Z,10.80
2023-04-22T03:07:03.083Z,10.80
2023-04-22T03:09:32.296Z,10.80
2023-04-22T03:12:00.160Z,10.80
2023-04-22T03:14:28.005Z,10.80
2023-04-22T03:16:56.224Z,10.80
2023-04-22T03:19:24.236Z,10.90
2023-04-22T03:21:52.157Z,10.90
2023-04-22T03:24:20.077Z,10.90
2023-04-22T03:26:49.490Z,10.90
2023-04-22T03:29:17.386Z,10.90
2023-04-22T03:31:45.491Z,10.90
2023-04-22T03:34:13.423Z,10.90
2023-04-22T03:36:41.277Z,10.90
2023-04-22T03:39:09.563Z,11.00
2023-04-22T03:41:37.488Z,11.00
2023-04-22T03:44:06.697Z,10.90
2023-04-22T03:46:34.673Z,11.00
2023-04-22T03:49:02.978Z,11.00
2023-04-22T03:51:30.890Z,11.00
2023-04-22T03:53:58.837Z,11.00
2023-04-22T03:56:26.711Z,11.00
2023-04-22T03:58:54.591Z,11.00
2023-04-22T04:01:24.486Z,11.00
2023-04-22T04:03:53.122Z,11.00
2023-04-22T04:06:21.758Z,11.00
2023-04-22T04:08:49.676Z,11.10
2023-04-22T04:11:17.598Z,11.10
2023-04-22T04:13:45.487Z,11.10
2023-04-22T04:16:13.451Z,11.10
2023-04-22T04:18:42.774Z,11.10
2023-04-22T04:21:10.750Z,11.20
2023-04-22T04:23:38.842Z,11.20
2023-04-22T04:26:06.816Z,11.20
2023-04-22T04:28:35.226Z,11.20
2023-04-22T04:31:03.861Z,11.20
2023-04-22T04:33:32.320Z,11.20
2023-04-22T04:36:01.775Z,11.20
2023-04-22T04:38:29.652Z,11.20
2023-04-22T04:40:58.074Z,11.20
2023-04-22T04:43:27.055Z,11.20
2023-04-22T04:45:55.046Z,11.20
2023-04-22T04:48:24.909Z,11.20
2023-04-22T04:50:54.071Z,11.20
2023-04-22T04:53:24.314Z,11.20
2023-04-22T04:55:52.302Z,11.20
2023-04-22T04:58:20.403Z,11.20
2023-04-22T05:00:48.546Z,11.20
2023-04-22T05:03:16.688Z,11.20
2023-04-22T05:05:46.606Z,11.20
2023-04-22T05:08:14.529Z,11.30
2023-04-22T05:10:45.059Z,11.30
2023-04-22T05:13:12.916Z,11.30
2023-04-22T05:15:41.058Z,11.30
2023-04-22T05:18:09.168Z,11.40
2023-04-22T05:20:37.101Z,11.40
2023-04-22T05:23:04.959Z,11.40
2023-04-22T05:25:32.894Z,11.40
2023-04-22T05:28:02.217Z,11.50
2023-04-22T05:30:30.159Z,11.50
2023-04-22T05:32:58.149Z,11.60
2023-04-22T05:35:26.094Z,11.60
2023-04-22T05:37:54.068Z,11.70
2023-04-22T05:40:22.023Z,11.80
2023-04-22T05:42:49.922Z,11.80
2023-04-22T05:45:19.319Z,11.90
2023-04-22T05:47:47.247Z,12.00
2023-04-22T05:50:15.650Z,12.00
2023-04-22T05:52:43.616Z,12.10
2023-04-22T05:55:11.504Z,12.10
2023-04-22T05:57:39.509Z,12.10
2023-04-22T06:00:09.234Z,12.20
2023-04-22T06:02:38.738Z,12.20
2023-04-22T06:05:08.000Z,12.20
2023-04-22T06:07:36.101Z,12.30
2023-04-22T06:10:05.405Z,12.30
2023-04-22T06:12:34.641Z,12.30
2023-04-22T06:15:02.613Z,12.40
2023-04-22T06:17:30.590Z,12.40
2023-04-22T06:20:00.049Z,12.40
2023-04-22T06:22:27.999Z,12.50
2023-04-22T06:24:56.010Z,12.60
2023-04-22T06:27:23.938Z,12.60
2023-04-22T06:29:51.855Z,12.60
2023-04-22T06:32:19.770Z,12.70
2023-04-22T06:34:47.636Z,12.80
2023-04-22T06:37:16.908Z,12.90
2023-04-22T06:39:44.760Z,12.90
2023-04-22T06:42:12.722Z,13.00
2023-04-22T06:44:40.660Z,13.10
2023-04-22T06:47:08.529Z,13.30
2023-04-22T06:49:38.499Z,13.50
2023-04-22T06:52:06.868Z,13.60
2023-04-22T06:54:36.237Z,13.80
2023-04-22T06:57:04.515Z,13.90
2023-04-22T06:59:32.485Z,14.00
2023-04-22T07:02:00.532Z,14.10
2023-04-22T07:04:29.429Z,14.20
2023-04-22T07:06:57.399Z,14.30
2023-04-22T07:09:25.704Z,14.50
2023-04-22T07:11:54.992Z,14.50
2023-04-22T07:14:23.048Z,14.60
2023-04-22T07:16:51.001Z,14.60
2023-04-22T07:19:18.938Z,14.60
2023-04-22T07:21:46.875Z,14.70
2023-04-22T07:24:15.516Z,14.70
2023-04-22T07:26:44.776Z,14.80
2023-04-22T07:29:14.093Z,14.80
2023-04-22T07:31:42.031Z,14.90
2023-04-22T07:34:10.679Z,15.00
2023-04-22T07:36:38.639Z,15.10
2023-04-22T07:39:06.583Z,15.20
2023-04-22T07:41:34.471Z,15.30
2023-04-22T07:44:03.033Z,15.30
2023-04-22T07:46:32.561Z,15.50
2023-04-22T07:49:00.508Z,15.60
2023-04-22T07:51:28.421Z,15.70
2023-04-22T07:53:56.283Z,15.80
2023-04-22T07:56:24.194Z,15.80
2023-04-22T07:58:52.166Z,15.90
2023-04-22T08:01:20.325Z,16.00
2023-04-22T08:03:49.879Z,16.20
2023-04-22T08:06:18.064Z,16.40
2023-04-22T08:08:45.957Z,16.60
2023-04-22T08:11:13.847Z,16.80
2023-04-22T08:13:41.754Z,17.00
2023-04-22T08:16:09.725Z,17.10
2023-04-22T08:18:37.650Z,17.30
2023-04-22T08:21:07.073Z,17.40
2023-04-22T08:23:35.200Z,17.60
2023-04-22T08:26:04.072Z,17.80
2023-04-22T08:28:31.991Z,18.00
2023-04-22T08:30:59.889Z,18.30
2023-04-22T08:33:27.798Z,18.50
2023-04-22T08:35:55.787Z,18.70
2023-04-22T08:38:25.263Z,18.90
2023-04-22T08:40:56.914Z,19.00
2023-04-22T08:43:27.177Z,19.10
2023-04-22T08:45:55.044Z,19.10
2023-04-22T08:48:23.611Z,19.20
2023-04-22T08:50:51.958Z,19.30
2023-04-22T08:53:20.416Z,19.50
2023-04-22T08:55:50.874Z,19.50
2023-04-22T09:01:02.302Z,19.90
2023-04-22T09:03:31.716Z,20.00
2023-04-22T09:06:01.150Z,20.10
2023-04-22T09:08:29.079Z,20.10
2023-04-22T09:10:57.039Z,20.20
2023-04-22T09:13:26.951Z,20.30
2023-04-22T09:15:54.913Z,20.40
2023-04-22T09:18:24.282Z,20.60
2023-04-22T09:20:57.617Z,21.00
2023-04-22T09:23:25.721Z,21.50
2023-04-22T09:25:53.712Z,22.00
2023-04-22T09:28:21.654Z,22.40
2023-04-22T09:30:49.660Z,22.60
2023-04-22T09:33:17.774Z,22.80
2023-04-22T09:35:48.124Z,22.90
2023-04-22T09:38:16.701Z,23.30
2023-04-22T09:40:46.700Z,23.60
2023-04-22T09:43:19.992Z,24.90
2023-04-22T09:45:48.002Z,26.40
2023-04-22T09:48:18.449Z,28.20
2023-04-22T09:50:49.674Z,29.80
2023-04-22T09:53:19.657Z,31.60
2023-04-22T09:55:49.508Z,33.00
2023-04-22T09:58:18.587Z,33.90
2023-04-22T10:00:48.870Z,34.50
2023-04-22T10:03:17.169Z,35.00
2023-04-22T10:05:49.268Z,35.90
2023-04-22T10:08:20.921Z,36.50
2023-04-22T10:10:48.915Z,36.00
2023-04-22T10:13:16.875Z,35.50
2023-04-22T10:15:54.490Z,34.30
2023-04-22T10:18:25.524Z,33.30
2023-04-22T10:20:56.990Z,33.20
2023-04-22T10:23:26.182Z,33.80
2023-04-22T10:25:55.878Z,34.00
2023-04-22T10:28:25.209Z,34.50
2023-04-22T10:30:53.298Z,34.70
2023-04-22T10:33:40.391Z,35.30
2023-04-22T10:36:11.707Z,36.40
2023-04-22T10:38:41.847Z,36.80
2023-04-22T10:41:15.305Z,37.10
2023-04-22T10:43:44.659Z,37.50
2023-04-22T10:46:57.623Z,37.20
2023-04-22T10:49:26.846Z,36.60
2023-04-22T10:51:58.321Z,36.40
2023-04-22T10:55:00.171Z,36.50
2023-04-22T10:57:39.953Z,36.80
2023-04-22T11:00:45.618Z,36.70
2023-04-22T11:03:16.779Z,36.40
2023-04-22T11:05:45.683Z,36.10
2023-04-22T11:08:20.533Z,34.70
2023-04-22T11:10:50.368Z,32.70
2023-04-22T11:13:21.680Z,31.20
2023-04-22T11:15:51.131Z,30.40
2023-04-22T11:18:21.949Z,29.80
2023-04-22T11:20:52.439Z,29.30
2023-04-22T11:23:27.017Z,29.00
2023-04-22T11:25:59.136Z,28.60
2023-04-22T11:28:27.565Z,28.20
2023-04-22T11:31:03.554Z,27.60
2023-04-22T11:33:32.883Z,27.20
2023-04-22T11:36:01.086Z,27.10
2023-04-22T11:38:30.498Z,26.90
2023-04-22T11:40:58.466Z,26.50
2023-04-22T11:43:26.748Z,26.20
2023-04-22T11:45:59.299Z,25.70
2023-04-22T11:48:27.369Z,25.30
2023-04-22T11:51:10.160Z,25.10
2023-04-22T11:53:41.136Z,25.00
2023-04-22T11:56:09.271Z,24.90
2023-04-22T11:58:41.154Z,24.70
2023-04-22T12:01:14.099Z,24.70
2023-04-22T12:03:42.398Z,24.50
2023-04-22T12:06:10.998Z,24.40
2023-04-22T12:08:42.381Z,24.30
2023-04-22T12:11:11.986Z,24.30
2023-04-22T12:13:44.461Z,24.30
2023-04-22T12:16:14.306Z,24.30
2023-04-22T12:18:49.088Z,24.20
2023-04-22T12:21:20.293Z,24.00
2023-04-22T12:23:51.234Z,24.00
2023-04-22T12:26:23.702Z,23.90
2023-04-22T12:28:53.758Z,23.80
2023-04-22T12:31:22.104Z,23.70
2023-04-22T12:33:50.350Z,23.50
2023-04-22T12:36:20.845Z,23.40
2023-04-22T12:38:51.056Z,23.30
2023-04-22T12:41:19.166Z,23.10
2023-04-22T12:43:47.679Z,23.20
2023-04-22T12:46:15.765Z,23.10
2023-04-22T12:48:43.704Z,23.20
2023-04-22T12:51:11.619Z,23.20
2023-04-22T12:53:39.542Z,23.20
2023-04-22T12:56:09.055Z,23.30
2023-04-22T12:58:36.999Z,23.30
2023-04-22T13:01:04.958Z,23.30
2023-04-22T13:03:33.185Z,23.20
2023-04-22T13:06:01.248Z,23.10
2023-04-22T13:08:29.780Z,23.00
2023-04-22T13:11:00.226Z,22.80
2023-04-22T13:13:29.612Z,22.70
2023-04-22T13:15:57.721Z,22.60
2023-04-22T13:18:25.668Z,22.60
2023-04-22T13:20:54.991Z,22.60
2023-04-22T13:23:23.447Z,22.60
2023-04-22T13:25:51.774Z,22.40
2023-04-22T13:28:19.881Z,22.30
2023-04-22T13:30:49.121Z,22.20
2023-04-22T13:33:17.159Z,22.20
2023-04-22T13:35:45.145Z,22.10
2023-04-22T13:38:13.142Z,21.90
2023-04-22T13:40:41.112Z,21.70
2023-04-22T13:43:10.284Z,21.60
2023-04-22T13:45:38.405Z,21.50
2023-04-22T13:48:07.795Z,21.40
2023-04-22T13:50:35.813Z,21.40
2023-04-22T13:53:04.786Z,21.30
2023-04-22T13:55:32.810Z,21.20
2023-04-22T13:58:01.184Z,21.10
2023-04-22T14:00:29.602Z,21.00
2023-04-22T14:02:57.977Z,20.80
2023-04-22T14:05:28.012Z,20.70
2023-04-22T14:07:56.718Z,20.70
2023-04-22T14:10:26.634Z,20.60
2023-04-22T14:12:57.155Z,20.60
2023-04-22T14:15:25.661Z,20.50
2023-04-22T14:17:54.757Z,20.50
2023-04-22T14:20:25.023Z,20.40
2023-04-22T14:22:54.467Z,20.40
2023-04-22T14:25:22.658Z,20.40
2023-04-22T14:27:50.620Z,20.40
2023-04-22T14:30:20.138Z,20.30
2023-04-22T14:32:48.111Z,20.30
2023-04-22T14:35:16.108Z,20.20
2023-04-22T14:37:45.105Z,20.20
2023-04-22T14:40:14.686Z,20.20
2023-04-22T14:42:42.794Z,20.20
2023-04-22T14:45:14.612Z,20.30
2023-04-22T14:47:42.741Z,20.30
2023-04-22T14:50:11.330Z,20.20
2023-04-22T14:52:39.317Z,20.20
2023-04-22T14:55:19.484Z,20.20
2023-04-22T14:57:56.642Z,20.10
2023-04-22T15:00:25.565Z,20.10
2023-04-22T15:02:54.077Z,20.10
2023-04-22T15:05:23.505Z,20.00
2023-04-22T15:07:51.586Z,19.90
2023-04-22T15:10:20.236Z,19.90
2023-04-22T15:12:48.189Z,19.80
2023-04-22T15:15:18.352Z,19.70
2023-04-22T15:17:46.865Z,19.60
2023-04-22T15:20:15.330Z,19.60
2023-04-22T15:22:44.729Z,19.60
2023-04-22T15:25:12.870Z,19.60
2023-04-22T15:27:41.262Z,19.50
2023-04-22T15:30:10.867Z,19.40
2023-04-22T15:32:40.254Z,19.40
2023-04-22T15:35:09.814Z,19.30
2023-04-22T15:37:37.919Z,19.30
2023-04-22T15:40:07.670Z,19.20
2023-04-22T15:42:35.960Z,19.20
2023-04-22T15:45:04.428Z,19.10
2023-04-22T15:47:32.636Z,19.10
2023-04-22T15:50:06.576Z,19.10
2023-04-22T15:52:34.676Z,19.00
2023-04-22T15:55:02.602Z,19.00
2023-04-22T15:57:34.529Z,19.00
2023-04-22T16:00:11.779Z,18.90
2023-04-22T16:02:41.851Z,18.90
2023-04-22T16:05:12.470Z,18.80
2023-04-22T16:07:40.438Z,18.80
2023-04-22T16:10:10.096Z,18.80
2023-04-22T16:12:38.019Z,18.70
2023-04-22T16:15:07.232Z,18.70
2023-04-22T16:17:35.199Z,18.70
2023-04-22T16:20:04.220Z,18.70
2023-04-22T16:22:33.585Z,18.70
2023-04-22T16:25:01.598Z,18.60
2023-04-22T16:27:30.735Z,18.60
2023-04-22T16:29:58.697Z,18.60
2023-04-22T16:32:26.741Z,18.60
2023-04-22T16:34:54.900Z,18.60
2023-04-22T16:37:22.775Z,18.50
2023-04-22T16:39:52.180Z,18.50
2023-04-22T16:42:20.174Z,18.50
2023-04-22T16:44:48.085Z,18.40
2023-04-22T16:47:15.997Z,18.40
2023-04-22T16:49:44.135Z,18.40
2023-04-22T16:52:12.240Z,18.30
2023-04-22T16:54:40.962Z,18.20
2023-04-22T16:57:11.515Z,18.20
2023-04-22T16:59:39.913Z,18.10
2023-04-22T17:02:08.026Z,18.00
2023-04-22T17:04:36.066Z,18.00
2023-04-22T17:07:04.140Z,18.00
2023-04-22T17:09:33.099Z,17.90
2023-04-22T17:12:01.505Z,17.90
2023-04-22T17:14:31.062Z,17.80
2023-04-22T17:16:59.118Z,17.80
2023-04-22T17:19:27.749Z,17.80
2023-04-22T17:21:55.681Z,17.70
2023-04-22T17:24:24.211Z,17.60
2023-04-22T17:26:52.641Z,17.60
2023-04-22T17:29:21.806Z,17.50
2023-04-22T17:31:51.640Z,17.50
2023-04-22T17:34:19.718Z,17.50
2023-04-22T17:36:47.686Z,17.50
2023-04-22T17:39:15.821Z,17.40
2023-04-22T17:41:44.613Z,17.40
2023-04-22T17:44:12.512Z,17.40
2023-04-22T17:46:41.436Z,17.30
2023-04-22T17:49:10.854Z,17.30
2023-04-22T17:51:38.828Z,17.20
2023-04-22T17:54:07.496Z,17.20
2023-04-22T17:56:35.492Z,17.10
2023-04-22T17:59:03.367Z,17.10
2023-04-22T18:01:31.369Z,17.00
2023-04-22T18:03:59.780Z,16.90
2023-04-22T18:06:29.254Z,16.90
2023-04-22T18:08:57.292Z,16.80
2023-04-22T18:11:25.868Z,16.80
2023-04-22T18:13:53.865Z,16.70
2023-04-22T18:16:21.865Z,16.60
2023-04-22T18:18:49.777Z,16.60
2023-04-22T18:21:17.822Z,16.50
2023-04-22T18:23:47.189Z,16.40
2023-04-22T18:26:15.524Z,16.40
2023-04-22T18:28:44.543Z,16.30
2023-04-22T18:31:12.549Z,16.30
2023-04-22T18:33:40.611Z,16.20
2023-04-22T18:36:08.815Z,16.20
2023-04-22T18:38:38.622Z,16.10
2023-04-22T18:41:09.874Z,16.10
2023-04-22T18:43:38.074Z,16.10
2023-04-22T18:46:06.130Z,16.00
2023-04-22T18:48:34.095Z,16.00
2023-04-22T18:51:02.231Z,16.00
2023-04-22T18:53:30.319Z,15.90
2023-04-22T18:55:58.239Z,16.00
2023-04-22T18:58:27.588Z,15.90
2023-04-22T19:00:55.636Z,15.90
2023-04-22T19:03:23.684Z,15.90
2023-04-22T19:05:51.715Z,15.90
2023-04-22T19:08:19.609Z,15.90
2023-04-22T19:10:47.633Z,15.90
2023-04-22T19:13:28.619Z,15.80
2023-04-22T19:15:59.948Z,15.80
2023-04-22T19:18:27.997Z,15.80
2023-04-22T19:20:56.019Z,15.80
2023-04-22T19:23:24.150Z,15.80
2023-04-22T19:25:52.177Z,15.70
2023-04-22T19:28:20.167Z,15.70
2023-04-22T19:30:48.356Z,15.70
2023-04-22T19:33:17.772Z,15.70
2023-04-22T19:35:45.833Z,15.70
2023-04-22T19:38:16.279Z,15.70
2023-04-22T19:40:44.154Z,15.60
2023-04-22T19:43:12.235Z,15.60
2023-04-22T19:45:40.205Z,15.60
2023-04-22T19:48:09.023Z,15.60
2023-04-22T19:50:38.655Z,15.70
2023-04-22T19:53:07.492Z,15.70
2023-04-22T19:55:36.648Z,15.70
2023-04-22T19:58:05.397Z,15.70
2023-04-22T20:00:33.616Z,15.70
2023-04-22T20:03:02.074Z,15.70
2023-04-22T20:05:30.871Z,15.70
2023-04-22T20:08:01.900Z,15.60
2023-04-22T20:10:31.191Z,15.60
2023-04-22T20:12:59.629Z,15.50
2023-04-22T20:15:28.008Z,15.50
2023-04-22T20:17:56.409Z,15.50
2023-04-22T20:20:24.780Z,15.40
2023-04-22T20:22:54.697Z,15.30
2023-04-22T20:25:24.931Z,15.30
2023-04-22T20:27:53.837Z,15.30
2023-04-22T20:30:21.885Z,15.30
2023-04-22T20:32:50.089Z,15.20
2023-04-22T20:35:18.559Z,15.20
2023-04-22T20:37:47.175Z,15.20
2023-04-22T20:40:15.805Z,15.10
2023-04-22T20:42:45.209Z,15.10
2023-04-22T20:45:15.637Z,15.10
2023-04-22T20:47:44.310Z,15.00
2023-04-22T20:50:13.746Z,15.00
2023-04-22T20:52:41.665Z,14.90
2023-04-22T20:55:10.348Z,14.90
2023-04-22T20:57:38.296Z,14.80
2023-04-22T21:00:10.190Z,14.80
2023-04-22T21:02:39.286Z,14.70
2023-04-22T21:05:08.352Z,14.70
2023-04-22T21:07:39.665Z,14.60
2023-04-22T21:10:09.178Z,14.60
2023-04-22T21:12:38.054Z,14.50
2023-04-22T21:15:09.217Z,14.50
2023-04-22T21:17:44.403Z,14.40
2023-04-22T21:20:12.918Z,14.30
2023-04-22T21:22:43.404Z,14.30
2023-04-22T21:25:15.227Z,14.20
2023-04-22T21:27:44.016Z,14.20
2023-04-22T21:30:14.895Z,14.20
2023-04-22T21:32:43.060Z,14.10
2023-04-22T21:35:11.690Z,14.10
2023-04-22T21:37:39.641Z,14.00
2023-04-22T21:40:12.838Z,14.00
2023-04-22T21:42:41.692Z,13.90
2023-04-22T21:45:10.245Z,13.80
2023-04-22T21:47:39.621Z,13.80
2023-04-22T21:50:08.463Z,13.80
2023-04-22T21:52:36.398Z,13.70
2023-04-22T21:55:04.761Z,13.70
2023-04-22T21:57:32.805Z,13.60
2023-04-22T22:00:00.640Z,13.60
2023-04-22T22:02:28.716Z,13.50
2023-04-22T22:04:58.052Z,13.50
2023-04-22T22:07:26.777Z,13.50
2023-04-22T22:09:54.943Z,13.40
2023-04-22T22:12:23.285Z,13.40
2023-04-22T22:14:51.308Z,13.40
2023-04-22T22:17:19.750Z,13.30
2023-04-22T22:19:49.510Z,13.30
2023-04-22T22:22:18.827Z,13.30
2023-04-22T22:24:46.746Z,13.20
2023-04-22T22:27:14.801Z,13.20
2023-04-22T22:29:42.758Z,13.10
2023-04-22T22:32:10.770Z,13.10
2023-04-22T22:34:39.246Z,13.10
2023-04-22T22:37:07.395Z,13.10
2023-04-22T22:39:37.309Z,13.00
2023-04-22T22:42:05.506Z,13.00
2023-04-22T22:44:33.345Z,13.00
2023-04-22T22:47:01.785Z,13.00
2023-04-22T22:49:30.038Z,13.00
2023-04-22T22:51:58.532Z,13.00
2023-04-22T22:54:26.702Z,12.90
2023-04-22T22:56:57.800Z,12.90
2023-04-22T22:59:25.749Z,12.90
2023-04-22T23:01:53.672Z,12.90
2023-04-22T23:04:21.705Z,12.80
2023-04-22T23:06:49.692Z,12.80
2023-04-22T23:09:19.074Z,12.80
2023-04-22T23:11:49.111Z,12.80
2023-04-22T23:14:19.340Z,12.80
2023-04-22T23:16:47.572Z,12.70
2023-04-22T23:19:16.980Z,12.80
2023-04-22T23:21:46.161Z,12.70
2023-04-22T23:24:15.519Z,12.80
2023-04-22T23:26:44.156Z,12.70
2023-04-22T23:29:12.484Z,12.70
2023-04-22T23:31:43.415Z,12.70
2023-04-22T23:34:11.692Z,12.70
2023-04-22T23:36:40.482Z,12.70
2023-04-22T23:39:09.738Z,12.60
2023-04-22T23:41:37.779Z,12.60
2023-04-22T23:44:06.437Z,12.60
2023-04-22T23:46:34.437Z,12.60
2023-04-22T23:49:03.780Z,12.60
2023-04-22T23:51:31.743Z,12.60
2023-04-22T23:53:59.685Z,12.60
2023-04-22T23:56:28.056Z,12.50
2023-04-22T23:58:57.104Z,12.50
